sensor_id;sensor_type;location;lat;lon;timestamp;P1;durP1;ratioP1;P2;durP2;ratioP2
65035;SDS011;51603;49.300;8.880;2024-02-04T00:01:38;7.77;;;7.10;;
65035;SDS011;51603;49.300;8.880;2024-02-04T00:04:04;8.40;;;7.60;;
65035;SDS011;51603;49.300;8.880;2024-02-04T00:06:30;8.70;;;7.90;;
65035;SDS011;51603;49.300;8.880;2024-02-04T00:08:56;8.20;;;7.40;;
65035;SDS011;51603;49.300;8.880;2024-02-04T00:11:22;7.10;;;6.50;;
65035;SDS011;51603;49.300;8.880;2024-02-04T00:13:47;8.27;;;7.47;;
65035;SDS011;51603;49.300;8.880;2024-02-04T00:16:13;7.67;;;6.97;;
65035;SDS011;51603;49.300;8.880;2024-02-04T00:18:38;9.27;;;8.00;;
65035;SDS011;51603;49.300;8.880;2024-02-04T00:21:04;8.03;;;7.23;;
65035;SDS011;51603;49.300;8.880;2024-02-04T00:23:29;7.53;;;6.83;;
65035;SDS011;51603;49.300;8.880;2024-02-04T00:25:55;8.00;;;7.30;;
65035;SDS011;51603;49.300;8.880;2024-02-04T00:28:20;8.23;;;7.43;;
65035;SDS011;51603;49.300;8.880;2024-02-04T00:30:46;8.10;;;7.27;;
65035;SDS011;51603;49.300;8.880;2024-02-04T00:33:14;7.90;;;7.10;;
65035;SDS011;51603;49.300;8.880;2024-02-04T00:35:39;9.23;;;7.70;;
65035;SDS011;51603;49.300;8.880;2024-02-04T00:38:05;8.40;;;7.60;;
65035;SDS011;51603;49.300;8.880;2024-02-04T00:40:30;7.67;;;6.97;;
65035;SDS011;51603;49.300;8.880;2024-02-04T00:42:56;7.27;;;6.57;;
65035;SDS011;51603;49.300;8.880;2024-02-04T00:45:22;10.37;;;7.93;;
65035;SDS011;51603;49.300;8.880;2024-02-04T00:47:48;7.47;;;6.73;;
65035;SDS011;51603;49.300;8.880;2024-02-04T00:50:14;8.93;;;8.03;;
65035;SDS011;51603;49.300;8.880;2024-02-04T00:52:39;7.57;;;6.77;;
65035;SDS011;51603;49.300;8.880;2024-02-04T00:55:05;7.60;;;6.73;;
65035;SDS011;51603;49.300;8.880;2024-02-04T00:57:31;7.67;;;6.97;;
65035;SDS011;51603;49.300;8.880;2024-02-04T00:59:56;8.30;;;7.60;;
65035;SDS011;51603;49.300;8.880;2024-02-04T01:02:22;7.73;;;6.93;;
65035;SDS011;51603;49.300;8.880;2024-02-04T01:04:47;8.63;;;7.83;;
65035;SDS011;51603;49.300;8.880;2024-02-04T01:07:15;8.47;;;7.63;;
65035;SDS011;51603;49.300;8.880;2024-02-04T01:09:40;8.30;;;7.50;;
65035;SDS011;51603;49.300;8.880;2024-02-04T01:12:07;9.17;;;8.30;;
65035;SDS011;51603;49.300;8.880;2024-02-04T01:14:33;7.93;;;7.13;;
65035;SDS011;51603;49.300;8.880;2024-02-04T01:16:58;8.50;;;7.20;;
65035;SDS011;51603;49.300;8.880;2024-02-04T01:19:30;7.80;;;7.00;;
65035;SDS011;51603;49.300;8.880;2024-02-04T01:21:56;8.50;;;7.60;;
65035;SDS011;51603;49.300;8.880;2024-02-04T01:24:23;8.10;;;7.30;;
65035;SDS011;51603;49.300;8.880;2024-02-04T01:26:48;8.87;;;7.97;;
65035;SDS011;51603;49.300;8.880;2024-02-04T01:29:14;7.57;;;6.73;;
65035;SDS011;51603;49.300;8.880;2024-02-04T01:31:39;7.93;;;7.10;;
65035;SDS011;51603;49.300;8.880;2024-02-04T01:34:05;7.67;;;6.97;;
65035;SDS011;51603;49.300;8.880;2024-02-04T01:36:30;8.00;;;7.10;;
65035;SDS011;51603;49.300;8.880;2024-02-04T01:38:56;8.67;;;7.30;;
65035;SDS011;51603;49.300;8.880;2024-02-04T01:41:22;6.93;;;6.30;;
65035;SDS011;51603;49.300;8.880;2024-02-04T01:43:49;9.70;;;7.50;;
65035;SDS011;51603;49.300;8.880;2024-02-04T01:46:16;7.13;;;6.53;;
65035;SDS011;51603;49.300;8.880;2024-02-04T01:48:42;8.07;;;6.77;;
65035;SDS011;51603;49.300;8.880;2024-02-04T01:51:08;7.13;;;6.23;;
65035;SDS011;51603;49.300;8.880;2024-02-04T01:53:34;8.20;;;6.83;;
65035;SDS011;51603;49.300;8.880;2024-02-04T01:56:03;6.40;;;5.70;;
65035;SDS011;51603;49.300;8.880;2024-02-04T01:58:30;6.40;;;5.80;;
65035;SDS011;51603;49.300;8.880;2024-02-04T02:00:55;7.90;;;6.43;;
65035;SDS011;51603;49.300;8.880;2024-02-04T02:03:21;7.27;;;5.60;;
65035;SDS011;51603;49.300;8.880;2024-02-04T02:05:48;6.30;;;5.70;;
65035;SDS011;51603;49.300;8.880;2024-02-04T02:08:14;7.07;;;6.37;;
65035;SDS011;51603;49.300;8.880;2024-02-04T02:10:40;7.40;;;6.00;;
65035;SDS011;51603;49.300;8.880;2024-02-04T02:13:14;6.13;;;5.63;;
65035;SDS011;51603;49.300;8.880;2024-02-04T02:15:48;7.83;;;5.90;;
65035;SDS011;51603;49.300;8.880;2024-02-04T02:18:27;7.87;;;6.80;;
65035;SDS011;51603;49.300;8.880;2024-02-04T02:24:03;7.27;;;6.47;;
65035;SDS011;51603;49.300;8.880;2024-02-04T02:26:37;6.40;;;5.80;;
65035;SDS011;51603;49.300;8.880;2024-02-04T02:29:07;5.57;;;5.00;;
65035;SDS011;51603;49.300;8.880;2024-02-04T02:31:34;7.47;;;5.90;;
65035;SDS011;51603;49.300;8.880;2024-02-04T02:34:01;6.70;;;6.00;;
65035;SDS011;51603;49.300;8.880;2024-02-04T02:36:27;12.00;;;7.20;;
65035;SDS011;51603;49.300;8.880;2024-02-04T02:38:59;6.10;;;5.37;;
65035;SDS011;51603;49.300;8.880;2024-02-04T02:41:35;5.80;;;5.20;;
65035;SDS011;51603;49.300;8.880;2024-02-04T02:44:03;7.57;;;5.43;;
65035;SDS011;51603;49.300;8.880;2024-02-04T02:46:30;5.17;;;4.70;;
65035;SDS011;51603;49.300;8.880;2024-02-04T02:48:55;7.10;;;4.73;;
65035;SDS011;51603;49.300;8.880;2024-02-04T02:51:21;5.63;;;5.10;;
65035;SDS011;51603;49.300;8.880;2024-02-04T02:53:47;5.20;;;4.70;;
65035;SDS011;51603;49.300;8.880;2024-02-04T02:56:13;5.90;;;4.50;;
65035;SDS011;51603;49.300;8.880;2024-02-04T02:58:38;5.10;;;4.60;;
65035;SDS011;51603;49.300;8.880;2024-02-04T03:01:04;5.73;;;5.07;;
65035;SDS011;51603;49.300;8.880;2024-02-04T03:03:29;5.50;;;5.00;;
65035;SDS011;51603;49.300;8.880;2024-02-04T03:05:55;5.77;;;5.17;;
65035;SDS011;51603;49.300;8.880;2024-02-04T03:08:20;5.93;;;4.23;;
65035;SDS011;51603;49.300;8.880;2024-02-04T03:10:46;5.27;;;4.03;;
65035;SDS011;51603;49.300;8.880;2024-02-04T03:13:11;5.17;;;4.67;;
65035;SDS011;51603;49.300;8.880;2024-02-04T03:15:37;5.77;;;5.20;;
65035;SDS011;51603;49.300;8.880;2024-02-04T03:18:02;4.70;;;4.30;;
65035;SDS011;51603;49.300;8.880;2024-02-04T03:20:28;5.47;;;4.97;;
65035;SDS011;51603;49.300;8.880;2024-02-04T03:22:54;7.40;;;4.63;;
65035;SDS011;51603;49.300;8.880;2024-02-04T03:25:20;5.60;;;4.93;;
65035;SDS011;51603;49.300;8.880;2024-02-04T03:27:48;5.53;;;5.03;;
65035;SDS011;51603;49.300;8.880;2024-02-04T03:30:13;4.90;;;4.50;;
65035;SDS011;51603;49.300;8.880;2024-02-04T03:32:39;5.10;;;4.60;;
65035;SDS011;51603;49.300;8.880;2024-02-04T03:35:04;5.10;;;4.60;;
65035;SDS011;51603;49.300;8.880;2024-02-04T03:37:30;5.13;;;4.63;;
65035;SDS011;51603;49.300;8.880;2024-02-04T03:39:55;5.97;;;5.37;;
65035;SDS011;51603;49.300;8.880;2024-02-04T03:42:21;5.27;;;4.77;;
65035;SDS011;51603;49.300;8.880;2024-02-04T03:44:47;6.20;;;5.60;;
65035;SDS011;51603;49.300;8.880;2024-02-04T03:47:12;5.40;;;4.90;;
65035;SDS011;51603;49.300;8.880;2024-02-04T03:49:38;6.30;;;5.70;;
65035;SDS011;51603;49.300;8.880;2024-02-04T03:52:04;6.00;;;5.40;;
65035;SDS011;51603;49.300;8.880;2024-02-04T03:54:30;5.63;;;5.13;;
65035;SDS011;51603;49.300;8.880;2024-02-04T03:56:56;5.90;;;5.40;;
65035;SDS011;51603;49.300;8.880;2024-02-04T03:59:21;6.93;;;6.23;;
65035;SDS011;51603;49.300;8.880;2024-02-04T04:01:47;5.20;;;4.80;;
65035;SDS011;51603;49.300;8.880;2024-02-04T04:04:14;6.60;;;6.00;;
65035;SDS011;51603;49.300;8.880;2024-02-04T04:06:40;5.63;;;5.13;;
65035;SDS011;51603;49.300;8.880;2024-02-04T04:09:06;5.97;;;5.40;;
65035;SDS011;51603;49.300;8.880;2024-02-04T04:11:32;5.30;;;4.90;;
65035;SDS011;51603;49.300;8.880;2024-02-04T04:13:57;6.57;;;5.97;;
65035;SDS011;51603;49.300;8.880;2024-02-04T04:16:23;5.40;;;4.90;;
65035;SDS011;51603;49.300;8.880;2024-02-04T04:18:48;5.70;;;5.20;;
65035;SDS011;51603;49.300;8.880;2024-02-04T04:21:14;5.67;;;5.17;;
65035;SDS011;51603;49.300;8.880;2024-02-04T04:23:40;5.70;;;5.20;;
65035;SDS011;51603;49.300;8.880;2024-02-04T04:26:06;6.43;;;5.70;;
65035;SDS011;51603;49.300;8.880;2024-02-04T04:28:31;5.93;;;5.33;;
65035;SDS011;51603;49.300;8.880;2024-02-04T04:30:57;6.80;;;5.90;;
65035;SDS011;51603;49.300;8.880;2024-02-04T04:33:22;5.47;;;4.97;;
65035;SDS011;51603;49.300;8.880;2024-02-04T04:35:48;7.00;;;4.90;;
65035;SDS011;51603;49.300;8.880;2024-02-04T04:38:13;6.27;;;5.70;;
65035;SDS011;51603;49.300;8.880;2024-02-04T04:40:39;6.30;;;5.70;;
65035;SDS011;51603;49.300;8.880;2024-02-04T04:43:07;6.03;;;5.50;;
65035;SDS011;51603;49.300;8.880;2024-02-04T04:45:33;6.23;;;5.73;;
65035;SDS011;51603;49.300;8.880;2024-02-04T04:47:59;6.93;;;5.50;;
65035;SDS011;51603;49.300;8.880;2024-02-04T04:50:24;5.70;;;5.20;;
65035;SDS011;51603;49.300;8.880;2024-02-04T04:52:50;6.30;;;5.80;;
65035;SDS011;51603;49.300;8.880;2024-02-04T04:55:16;5.93;;;5.30;;
65035;SDS011;51603;49.300;8.880;2024-02-04T04:57:41;6.00;;;5.47;;
65035;SDS011;51603;49.300;8.880;2024-02-04T05:00:07;6.83;;;5.27;;
65035;SDS011;51603;49.300;8.880;2024-02-04T05:02:35;6.87;;;6.27;;
65035;SDS011;51603;49.300;8.880;2024-02-04T05:05:01;6.10;;;5.50;;
65035;SDS011;51603;49.300;8.880;2024-02-04T05:07:26;5.67;;;5.17;;
65035;SDS011;51603;49.300;8.880;2024-02-04T05:09:52;6.83;;;6.00;;
65035;SDS011;51603;49.300;8.880;2024-02-04T05:12:18;6.43;;;5.83;;
65035;SDS011;51603;49.300;8.880;2024-02-04T05:14:43;7.17;;;6.47;;
65035;SDS011;51603;49.300;8.880;2024-02-04T05:17:09;6.33;;;5.73;;
65035;SDS011;51603;49.300;8.880;2024-02-04T05:19:35;6.83;;;6.23;;
65035;SDS011;51603;49.300;8.880;2024-02-04T05:22:01;7.27;;;6.57;;
65035;SDS011;51603;49.300;8.880;2024-02-04T05:24:27;7.00;;;6.40;;
65035;SDS011;51603;49.300;8.880;2024-02-04T05:26:53;7.33;;;6.63;;
65035;SDS011;51603;49.300;8.880;2024-02-04T05:29:19;9.03;;;6.80;;
65035;SDS011;51603;49.300;8.880;2024-02-04T05:31:44;7.23;;;6.50;;
65035;SDS011;51603;49.300;8.880;2024-02-04T05:34:10;7.83;;;7.13;;
65035;SDS011;51603;49.300;8.880;2024-02-04T05:36:36;8.80;;;7.00;;
65035;SDS011;51603;49.300;8.880;2024-02-04T05:41:40;8.20;;;7.50;;
65035;SDS011;51603;49.300;8.880;2024-02-04T05:44:05;7.17;;;6.53;;
65035;SDS011;51603;49.300;8.880;2024-02-04T05:46:33;7.10;;;6.40;;
65035;SDS011;51603;49.300;8.880;2024-02-04T05:49:02;8.53;;;7.73;;
65035;SDS011;51603;49.300;8.880;2024-02-04T05:51:28;8.17;;;7.47;;
65035;SDS011;51603;49.300;8.880;2024-02-04T05:53:54;7.70;;;6.90;;
65035;SDS011;51603;49.300;8.880;2024-02-04T05:56:19;7.37;;;6.70;;
65035;SDS011;51603;49.300;8.880;2024-02-04T05:58:46;7.33;;;6.63;;
65035;SDS011;51603;49.300;8.880;2024-02-04T06:01:11;6.73;;;5.80;;
65035;SDS011;51603;49.300;8.880;2024-02-04T06:03:37;7.20;;;6.53;;
65035;SDS011;51603;49.300;8.880;2024-02-04T06:06:02;8.43;;;7.37;;
65035;SDS011;51603;49.300;8.880;2024-02-04T06:08:28;7.03;;;6.43;;
65035;SDS011;51603;49.300;8.880;2024-02-04T06:10:54;7.60;;;6.20;;
65035;SDS011;51603;49.300;8.880;2024-02-04T06:13:20;7.40;;;6.70;;
65035;SDS011;51603;49.300;8.880;2024-02-04T06:15:45;6.87;;;6.27;;
65035;SDS011;51603;49.300;8.880;2024-02-04T06:18:11;7.03;;;5.97;;
65035;SDS011;51603;49.300;8.880;2024-02-04T06:20:37;7.50;;;6.50;;
65035;SDS011;51603;49.300;8.880;2024-02-04T06:23:02;6.97;;;6.30;;
65035;SDS011;51603;49.300;8.880;2024-02-04T06:25:28;6.90;;;5.50;;
65035;SDS011;51603;49.300;8.880;2024-02-04T06:27:53;6.50;;;5.90;;
65035;SDS011;51603;49.300;8.880;2024-02-04T06:30:19;7.30;;;6.70;;
65035;SDS011;51603;49.300;8.880;2024-02-04T06:32:44;7.10;;;6.40;;
65035;SDS011;51603;49.300;8.880;2024-02-04T06:35:12;5.83;;;5.33;;
65035;SDS011;51603;49.300;8.880;2024-02-04T06:37:37;7.23;;;6.10;;
65035;SDS011;51603;49.300;8.880;2024-02-04T06:40:03;6.23;;;5.03;;
65035;SDS011;51603;49.300;8.880;2024-02-04T06:42:29;8.27;;;5.87;;
65035;SDS011;51603;49.300;8.880;2024-02-04T06:44:54;6.93;;;6.23;;
65035;SDS011;51603;49.300;8.880;2024-02-04T06:47:20;6.43;;;5.60;;
65035;SDS011;51603;49.300;8.880;2024-02-04T06:49:45;6.60;;;5.90;;
65035;SDS011;51603;49.300;8.880;2024-02-04T06:52:11;6.37;;;4.43;;
65035;SDS011;51603;49.300;8.880;2024-02-04T06:54:36;9.63;;;5.37;;
65035;SDS011;51603;49.300;8.880;2024-02-04T06:57:02;7.10;;;5.23;;
65035;SDS011;51603;49.300;8.880;2024-02-04T06:59:28;8.00;;;4.80;;
65035;SDS011;51603;49.300;8.880;2024-02-04T07:01:53;5.23;;;4.73;;
65035;SDS011;51603;49.300;8.880;2024-02-04T07:04:19;5.27;;;4.77;;
65035;SDS011;51603;49.300;8.880;2024-02-04T07:06:46;5.50;;;4.90;;
65035;SDS011;51603;49.300;8.880;2024-02-04T07:09:12;5.10;;;4.60;;
65035;SDS011;51603;49.300;8.880;2024-02-04T07:11:38;4.90;;;4.40;;
65035;SDS011;51603;49.300;8.880;2024-02-04T07:14:03;4.70;;;4.30;;
65035;SDS011;51603;49.300;8.880;2024-02-04T07:16:31;5.40;;;4.57;;
65035;SDS011;51603;49.300;8.880;2024-02-04T07:18:56;4.93;;;4.53;;
65035;SDS011;51603;49.300;8.880;2024-02-04T07:21:22;4.53;;;4.00;;
65035;SDS011;51603;49.300;8.880;2024-02-04T07:23:47;5.07;;;4.13;;
65035;SDS011;51603;49.300;8.880;2024-02-04T07:26:13;4.37;;;3.97;;
65035;SDS011;51603;49.300;8.880;2024-02-04T07:28:38;4.00;;;3.43;;
65035;SDS011;51603;49.300;8.880;2024-02-04T07:31:04;4.73;;;3.70;;
65035;SDS011;51603;49.300;8.880;2024-02-04T07:33:29;4.77;;;4.30;;
65035;SDS011;51603;49.300;8.880;2024-02-04T07:35:55;5.27;;;3.70;;
65035;SDS011;51603;49.300;8.880;2024-02-04T07:38:20;4.53;;;4.13;;
65035;SDS011;51603;49.300;8.880;2024-02-04T07:40:46;4.23;;;3.83;;
65035;SDS011;51603;49.300;8.880;2024-02-04T07:43:11;3.93;;;3.57;;
65035;SDS011;51603;49.300;8.880;2024-02-04T07:45:37;3.80;;;3.40;;
65035;SDS011;51603;49.300;8.880;2024-02-04T07:48:03;4.17;;;3.77;;
65035;SDS011;51603;49.300;8.880;2024-02-04T07:50:28;4.20;;;3.90;;
65035;SDS011;51603;49.300;8.880;2024-02-04T07:52:54;3.77;;;3.33;;
65035;SDS011;51603;49.300;8.880;2024-02-04T07:55:19;5.10;;;3.30;;
65035;SDS011;51603;49.300;8.880;2024-02-04T07:57:45;4.20;;;3.80;;
65035;SDS011;51603;49.300;8.880;2024-02-04T08:00:11;5.03;;;3.47;;
65035;SDS011;51603;49.300;8.880;2024-02-04T08:02:37;3.90;;;3.50;;
65035;SDS011;51603;49.300;8.880;2024-02-04T08:05:03;3.57;;;3.27;;
65035;SDS011;51603;49.300;8.880;2024-02-04T08:07:31;3.83;;;3.53;;
65035;SDS011;51603;49.300;8.880;2024-02-04T08:09:57;18.37;;;3.83;;
65035;SDS011;51603;49.300;8.880;2024-02-04T08:12:23;3.70;;;3.40;;
65035;SDS011;51603;49.300;8.880;2024-02-04T08:14:48;3.87;;;3.40;;
65035;SDS011;51603;49.300;8.880;2024-02-04T08:17:14;3.40;;;3.10;;
65035;SDS011;51603;49.300;8.880;2024-02-04T08:19:40;3.50;;;3.20;;
65035;SDS011;51603;49.300;8.880;2024-02-04T08:22:06;3.13;;;2.83;;
65035;SDS011;51603;49.300;8.880;2024-02-04T08:24:32;2.77;;;2.40;;
65035;SDS011;51603;49.300;8.880;2024-02-04T08:26:58;3.40;;;2.90;;
65035;SDS011;51603;49.300;8.880;2024-02-04T08:29:24;3.80;;;3.50;;
65035;SDS011;51603;49.300;8.880;2024-02-04T08:31:51;4.67;;;3.50;;
65035;SDS011;51603;49.300;8.880;2024-02-04T08:34:17;3.47;;;3.17;;
65035;SDS011;51603;49.300;8.880;2024-02-04T08:36:45;3.90;;;3.50;;
65035;SDS011;51603;49.300;8.880;2024-02-04T08:39:10;3.00;;;2.70;;
65035;SDS011;51603;49.300;8.880;2024-02-04T08:41:36;4.00;;;3.60;;
65035;SDS011;51603;49.300;8.880;2024-02-04T08:44:01;2.70;;;2.40;;
65035;SDS011;51603;49.300;8.880;2024-02-04T08:46:27;2.60;;;2.30;;
65035;SDS011;51603;49.300;8.880;2024-02-04T08:48:53;2.90;;;2.63;;
65035;SDS011;51603;49.300;8.880;2024-02-04T08:51:18;2.90;;;2.60;;
65035;SDS011;51603;49.300;8.880;2024-02-04T08:53:44;3.40;;;3.10;;
65035;SDS011;51603;49.300;8.880;2024-02-04T08:56:10;3.13;;;2.93;;
65035;SDS011;51603;49.300;8.880;2024-02-04T08:58:35;2.60;;;2.40;;
65035;SDS011;51603;49.300;8.880;2024-02-04T09:01:02;4.30;;;3.13;;
65035;SDS011;51603;49.300;8.880;2024-02-04T09:03:31;3.53;;;3.23;;
65035;SDS011;51603;49.300;8.880;2024-02-04T09:05:57;2.67;;;2.47;;
65035;SDS011;51603;49.300;8.880;2024-02-04T09:08:23;3.97;;;2.30;;
65035;SDS011;51603;49.300;8.880;2024-02-04T09:10:49;3.70;;;3.40;;
65035;SDS011;51603;49.300;8.880;2024-02-04T09:13:14;4.37;;;4.00;;
65035;SDS011;51603;49.300;8.880;2024-02-04T09:15:40;3.83;;;2.63;;
65035;SDS011;51603;49.300;8.880;2024-02-04T09:18:05;3.00;;;2.80;;
65035;SDS011;51603;49.300;8.880;2024-02-04T09:20:31;3.00;;;2.47;;
65035;SDS011;51603;49.300;8.880;2024-02-04T09:22:56;2.70;;;2.50;;
65035;SDS011;51603;49.300;8.880;2024-02-04T09:25:22;3.00;;;2.80;;
65035;SDS011;51603;49.300;8.880;2024-02-04T09:27:47;3.13;;;2.93;;
65035;SDS011;51603;49.300;8.880;2024-02-04T09:30:13;3.50;;;2.93;;
65035;SDS011;51603;49.300;8.880;2024-02-04T09:32:38;7.37;;;6.77;;
65035;SDS011;51603;49.300;8.880;2024-02-04T09:35:04;4.97;;;2.80;;
65035;SDS011;51603;49.300;8.880;2024-02-04T09:37:30;2.90;;;2.63;;
65035;SDS011;51603;49.300;8.880;2024-02-04T09:39:55;3.43;;;2.67;;
65035;SDS011;51603;49.300;8.880;2024-02-04T09:42:21;4.30;;;2.90;;
65035;SDS011;51603;49.300;8.880;2024-02-04T09:44:51;2.80;;;2.60;;
65035;SDS011;51603;49.300;8.880;2024-02-04T09:47:16;3.27;;;2.97;;
65035;SDS011;51603;49.300;8.880;2024-02-04T09:49:43;3.90;;;2.83;;
65035;SDS011;51603;49.300;8.880;2024-02-04T09:52:09;2.70;;;2.50;;
65035;SDS011;51603;49.300;8.880;2024-02-04T09:54:56;2.67;;;2.47;;
65035;SDS011;51603;49.300;8.880;2024-02-04T09:57:25;3.53;;;2.73;;
65035;SDS011;51603;49.300;8.880;2024-02-04T09:59:50;3.03;;;2.83;;
65035;SDS011;51603;49.300;8.880;2024-02-04T10:02:16;3.10;;;2.80;;
65035;SDS011;51603;49.300;8.880;2024-02-04T10:04:43;2.27;;;2.07;;
65035;SDS011;51603;49.300;8.880;2024-02-04T10:07:08;2.30;;;2.10;;
65035;SDS011;51603;49.300;8.880;2024-02-04T10:09:34;2.23;;;2.03;;
65035;SDS011;51603;49.300;8.880;2024-02-04T10:11:59;2.90;;;2.27;;
65035;SDS011;51603;49.300;8.880;2024-02-04T10:14:25;2.77;;;2.57;;
65035;SDS011;51603;49.300;8.880;2024-02-04T10:16:51;2.00;;;1.90;;
65035;SDS011;51603;49.300;8.880;2024-02-04T10:19:16;2.23;;;2.03;;
65035;SDS011;51603;49.300;8.880;2024-02-04T10:21:42;2.43;;;2.17;;
65035;SDS011;51603;49.300;8.880;2024-02-04T10:24:07;2.40;;;2.20;;
65035;SDS011;51603;49.300;8.880;2024-02-04T10:26:33;2.73;;;2.53;;
65035;SDS011;51603;49.300;8.880;2024-02-04T10:29:02;2.80;;;2.60;;
65035;SDS011;51603;49.300;8.880;2024-02-04T10:31:28;3.07;;;2.77;;
65035;SDS011;51603;49.300;8.880;2024-02-04T10:33:54;2.90;;;2.30;;
65035;SDS011;51603;49.300;8.880;2024-02-04T10:36:20;3.33;;;2.73;;
65035;SDS011;51603;49.300;8.880;2024-02-04T10:38:46;3.57;;;2.17;;
65035;SDS011;51603;49.300;8.880;2024-02-04T10:41:14;1.53;;;1.43;;
65035;SDS011;51603;49.300;8.880;2024-02-04T10:43:42;2.10;;;1.83;;
65035;SDS011;51603;49.300;8.880;2024-02-04T10:48:43;2.17;;;2.00;;
65035;SDS011;51603;49.300;8.880;2024-02-04T10:51:15;2.50;;;1.80;;
65035;SDS011;51603;49.300;8.880;2024-02-04T10:53:41;2.97;;;2.17;;
65035;SDS011;51603;49.300;8.880;2024-02-04T10:56:10;3.93;;;2.43;;
65035;SDS011;51603;49.300;8.880;2024-02-04T10:58:49;4.20;;;2.30;;
65035;SDS011;51603;49.300;8.880;2024-02-04T11:01:16;2.50;;;1.80;;
65035;SDS011;51603;49.300;8.880;2024-02-04T11:03:41;2.90;;;2.30;;
65035;SDS011;51603;49.300;8.880;2024-02-04T11:06:08;3.40;;;2.80;;
65035;SDS011;51603;49.300;8.880;2024-02-04T11:08:37;3.90;;;2.90;;
65035;SDS011;51603;49.300;8.880;2024-02-04T11:11:03;3.23;;;2.37;;
65035;SDS011;51603;49.300;8.880;2024-02-04T11:13:29;2.37;;;2.00;;
65035;SDS011;51603;49.300;8.880;2024-02-04T11:15:56;2.70;;;2.40;;
65035;SDS011;51603;49.300;8.880;2024-02-04T11:26:43;2.53;;;2.33;;
65035;SDS011;51603;49.300;8.880;2024-02-04T11:29:11;1.77;;;1.67;;
65035;SDS011;51603;49.300;8.880;2024-02-04T11:31:38;2.20;;;2.00;;
65035;SDS011;51603;49.300;8.880;2024-02-04T11:34:07;2.30;;;2.10;;
65035;SDS011;51603;49.300;8.880;2024-02-04T11:36:39;4.30;;;2.50;;
65035;SDS011;51603;49.300;8.880;2024-02-04T11:39:17;4.43;;;3.57;;
65035;SDS011;51603;49.300;8.880;2024-02-04T11:41:46;7.53;;;5.20;;
65035;SDS011;51603;49.300;8.880;2024-02-04T11:44:19;14.23;;;9.40;;
65035;SDS011;51603;49.300;8.880;2024-02-04T11:46:48;9.67;;;6.97;;
65035;SDS011;51603;49.300;8.880;2024-02-04T11:49:15;2.60;;;2.07;;
65035;SDS011;51603;49.300;8.880;2024-02-04T11:51:47;8.60;;;5.23;;
65035;SDS011;51603;49.300;8.880;2024-02-04T11:54:17;17.63;;;8.83;;
65035;SDS011;51603;49.300;8.880;2024-02-04T11:56:45;4.17;;;2.60;;
65035;SDS011;51603;49.300;8.880;2024-02-04T11:59:17;13.93;;;6.90;;
65035;SDS011;51603;49.300;8.880;2024-02-04T12:01:49;16.03;;;8.73;;
65035;SDS011;51603;49.300;8.880;2024-02-04T12:04:18;7.77;;;4.53;;
65035;SDS011;51603;49.300;8.880;2024-02-04T12:06:45;5.60;;;4.17;;
65035;SDS011;51603;49.300;8.880;2024-02-04T12:09:12;14.80;;;7.40;;
65035;SDS011;51603;49.300;8.880;2024-02-04T12:11:43;2.30;;;1.63;;
65035;SDS011;51603;49.300;8.880;2024-02-04T12:14:09;3.70;;;2.93;;
65035;SDS011;51603;49.300;8.880;2024-02-04T12:16:35;12.33;;;11.03;;
65035;SDS011;51603;49.300;8.880;2024-02-04T12:19:04;3.07;;;2.80;;
65035;SDS011;51603;49.300;8.880;2024-02-04T12:21:30;1.20;;;1.10;;
65035;SDS011;51603;49.300;8.880;2024-02-04T12:23:56;2.03;;;1.30;;
65035;SDS011;51603;49.300;8.880;2024-02-04T12:26:22;2.07;;;1.07;;
65035;SDS011;51603;49.300;8.880;2024-02-04T12:28:48;2.83;;;2.00;;
65035;SDS011;51603;49.300;8.880;2024-02-04T12:31:18;2.27;;;1.07;;
65035;SDS011;51603;49.300;8.880;2024-02-04T12:33:56;1.50;;;0.70;;
65035;SDS011;51603;49.300;8.880;2024-02-04T12:36:29;3.20;;;1.40;;
65035;SDS011;51603;49.300;8.880;2024-02-04T12:38:56;1.10;;;0.83;;
65035;SDS011;51603;49.300;8.880;2024-02-04T12:41:24;1.70;;;0.73;;
65035;SDS011;51603;49.300;8.880;2024-02-04T12:43:54;1.67;;;0.83;;
65035;SDS011;51603;49.300;8.880;2024-02-04T12:46:20;4.33;;;1.50;;
65035;SDS011;51603;49.300;8.880;2024-02-04T12:48:53;0.93;;;0.63;;
65035;SDS011;51603;49.300;8.880;2024-02-04T12:51:31;0.90;;;0.60;;
65035;SDS011;51603;49.300;8.880;2024-02-04T12:54:09;1.60;;;1.03;;
65035;SDS011;51603;49.300;8.880;2024-02-04T12:56:43;1.47;;;0.90;;
65035;SDS011;51603;49.300;8.880;2024-02-04T12:59:31;3.73;;;0.80;;
65035;SDS011;51603;49.300;8.880;2024-02-04T13:02:00;1.03;;;0.67;;
65035;SDS011;51603;49.300;8.880;2024-02-04T13:04:33;2.37;;;1.30;;
65035;SDS011;51603;49.300;8.880;2024-02-04T13:06:59;2.30;;;1.13;;
65035;SDS011;51603;49.300;8.880;2024-02-04T13:09:25;1.90;;;0.60;;
65035;SDS011;51603;49.300;8.880;2024-02-04T13:11:50;1.53;;;0.73;;
65035;SDS011;51603;49.300;8.880;2024-02-04T13:14:16;1.67;;;1.17;;
65035;SDS011;51603;49.300;8.880;2024-02-04T13:16:42;1.63;;;1.10;;
65035;SDS011;51603;49.300;8.880;2024-02-04T13:19:07;1.50;;;0.67;;
65035;SDS011;51603;49.300;8.880;2024-02-04T13:21:33;1.57;;;1.03;;
65035;SDS011;51603;49.300;8.880;2024-02-04T13:23:58;1.00;;;0.80;;
65035;SDS011;51603;49.300;8.880;2024-02-04T13:26:24;1.73;;;0.67;;
65035;SDS011;51603;49.300;8.880;2024-02-04T13:28:49;2.20;;;0.77;;
65035;SDS011;51603;49.300;8.880;2024-02-04T13:31:15;1.87;;;0.70;;
65035;SDS011;51603;49.300;8.880;2024-02-04T13:33:41;1.03;;;0.70;;
65035;SDS011;51603;49.300;8.880;2024-02-04T13:36:07;1.83;;;0.80;;
65035;SDS011;51603;49.300;8.880;2024-02-04T13:38:35;3.67;;;2.70;;
65035;SDS011;51603;49.300;8.880;2024-02-04T13:41:02;14.10;;;7.70;;
65035;SDS011;51603;49.300;8.880;2024-02-04T13:43:29;1.47;;;0.90;;
65035;SDS011;51603;49.300;8.880;2024-02-04T13:45:55;0.97;;;0.80;;
65035;SDS011;51603;49.300;8.880;2024-02-04T13:48:20;1.73;;;0.97;;
65035;SDS011;51603;49.300;8.880;2024-02-04T13:50:47;2.53;;;2.10;;
65035;SDS011;51603;49.300;8.880;2024-02-04T13:53:13;1.20;;;0.90;;
65035;SDS011;51603;49.300;8.880;2024-02-04T13:55:39;1.30;;;0.80;;
65035;SDS011;51603;49.300;8.880;2024-02-04T13:58:05;1.40;;;1.23;;
65035;SDS011;51603;49.300;8.880;2024-02-04T14:00:30;1.73;;;1.10;;
65035;SDS011;51603;49.300;8.880;2024-02-04T14:02:56;1.37;;;1.13;;
65035;SDS011;51603;49.300;8.880;2024-02-04T14:05:21;2.03;;;1.00;;
65035;SDS011;51603;49.300;8.880;2024-02-04T14:07:48;1.30;;;1.13;;
65035;SDS011;51603;49.300;8.880;2024-02-04T14:10:14;2.50;;;1.10;;
65035;SDS011;51603;49.300;8.880;2024-02-04T14:12:39;4.27;;;1.10;;
65035;SDS011;51603;49.300;8.880;2024-02-04T14:15:09;0.93;;;0.80;;
65035;SDS011;51603;49.300;8.880;2024-02-04T14:17:34;2.10;;;0.93;;
65035;SDS011;51603;49.300;8.880;2024-02-04T14:20:00;1.70;;;1.20;;
65035;SDS011;51603;49.300;8.880;2024-02-04T14:22:25;1.10;;;0.90;;
65035;SDS011;51603;49.300;8.880;2024-02-04T14:24:52;1.77;;;1.37;;
65035;SDS011;51603;49.300;8.880;2024-02-04T14:27:18;1.67;;;0.97;;
65035;SDS011;51603;49.300;8.880;2024-02-04T14:29:43;1.60;;;1.40;;
65035;SDS011;51603;49.300;8.880;2024-02-04T14:32:09;2.00;;;1.43;;
65035;SDS011;51603;49.300;8.880;2024-02-04T14:34:35;5.00;;;1.10;;
65035;SDS011;51603;49.300;8.880;2024-02-04T14:37:00;1.57;;;1.20;;
65035;SDS011;51603;49.300;8.880;2024-02-04T14:39:26;3.07;;;1.57;;
65035;SDS011;51603;49.300;8.880;2024-02-04T14:41:52;2.70;;;1.37;;
65035;SDS011;51603;49.300;8.880;2024-02-04T14:44:19;1.40;;;1.30;;
65035;SDS011;51603;49.300;8.880;2024-02-04T14:46:45;2.20;;;1.50;;
65035;SDS011;51603;49.300;8.880;2024-02-04T14:49:10;2.90;;;1.90;;
65035;SDS011;51603;49.300;8.880;2024-02-04T14:51:39;1.73;;;1.17;;
65035;SDS011;51603;49.300;8.880;2024-02-04T14:54:05;1.57;;;1.33;;
65035;SDS011;51603;49.300;8.880;2024-02-04T14:56:30;1.30;;;1.20;;
65035;SDS011;51603;49.300;8.880;2024-02-04T14:59:01;3.37;;;1.37;;
65035;SDS011;51603;49.300;8.880;2024-02-04T15:01:26;2.20;;;1.30;;